sensor_id;sensor_type;location;lat;lon;timestamp;pressure;altitude;pressure_sealevel;temperature;humidity
71974;BME280;59840;52.122;5.404;2022-09-12T00:00:09;101875.44;;;12.46;89.40
71974;BME280;59840;52.122;5.404;2022-09-12T00:02:36;101874.50;;;12.40;89.11
71974;BME280;59840;52.122;5.404;2022-09-12T00:05:02;101875.53;;;12.39;88.93
71974;BME280;59840;52.122;5.404;2022-09-12T00:07:29;101874.63;;;12.33;88.75
71974;BME280;59840;52.122;5.404;2022-09-12T00:09:55;101870.69;;;12.24;88.78
71974;BME280;59840;52.122;5.404;2022-09-12T00:12:22;101874.25;;;12.18;89.23
71974;BME280;59840;52.122;5.404;2022-09-12T00:14:48;101865.97;;;12.15;89.19
71974;BME280;59840;52.122;5.404;2022-09-12T00:17:15;101856.69;;;12.12;89.72
71974;BME280;59840;52.122;5.404;2022-09-12T00:19:41;101866.78;;;12.15;89.58
71974;BME280;59840;52.122;5.404;2022-09-12T00:22:08;101863.09;;;12.16;89.50
71974;BME280;59840;52.122;5.404;2022-09-12T00:24:34;101851.94;;;12.14;89.55
71974;BME280;59840;52.122;5.404;2022-09-12T00:27:01;101852.19;;;12.13;89.57
71974;BME280;59840;52.122;5.404;2022-09-12T00:29:27;101851.63;;;12.11;89.11
71974;BME280;59840;52.122;5.404;2022-09-12T00:31:54;101842.53;;;12.06;88.96
71974;BME280;59840;52.122;5.404;2022-09-12T00:34:20;101845.28;;;12.00;89.33
71974;BME280;59840;52.122;5.404;2022-09-12T00:36:46;101841.81;;;11.99;89.52
71974;BME280;59840;52.122;5.404;2022-09-12T00:39:14;101844.22;;;12.01;89.57
71974;BME280;59840;52.122;5.404;2022-09-12T00:41:42;101846.66;;;12.02;89.38
71974;BME280;59840;52.122;5.404;2022-09-12T00:46:43;101840.66;;;11.95;89.69
71974;BME280;59840;52.122;5.404;2022-09-12T00:49:30;101845.72;;;11.97;89.51
71974;BME280;59840;52.122;5.404;2022-09-12T00:52:11;101840.88;;;11.94;89.08
71974;BME280;59840;52.122;5.404;2022-09-12T00:54:44;101839.72;;;11.90;89.73
71974;BME280;59840;52.122;5.404;2022-09-12T00:57:13;101834.22;;;11.91;89.88
71974;BME280;59840;52.122;5.404;2022-09-12T01:00:12;101838.78;;;11.84;89.34
71974;BME280;59840;52.122;5.404;2022-09-12T01:02:46;101832.94;;;11.82;89.48
71974;BME280;59840;52.122;5.404;2022-09-12T01:05:14;101834.19;;;11.80;89.06
71974;BME280;59840;52.122;5.404;2022-09-12T01:07:42;101834.50;;;11.71;89.31
71974;BME280;59840;52.122;5.404;2022-09-12T01:10:10;101829.09;;;11.66;89.44
71974;BME280;59840;52.122;5.404;2022-09-12T01:12:39;101833.56;;;11.66;89.63
71974;BME280;59840;52.122;5.404;2022-09-12T01:15:07;101833.00;;;11.64;89.40
71974;BME280;59840;52.122;5.404;2022-09-12T01:23:02;101827.91;;;11.51;89.34
71974;BME280;59840;52.122;5.404;2022-09-12T01:28:52;101822.94;;;11.43;89.16
71974;BME280;59840;52.122;5.404;2022-09-12T01:36:45;101810.63;;;11.36;89.09
71974;BME280;59840;52.122;5.404;2022-09-12T01:41:54;101815.13;;;11.36;89.80
71974;BME280;59840;52.122;5.404;2022-09-12T01:45:08;101806.59;;;11.34;89.50
71974;BME280;59840;52.122;5.404;2022-09-12T01:50:13;101800.38;;;11.28;89.83
71974;BME280;59840;52.122;5.404;2022-09-12T01:52:47;101798.19;;;11.25;89.89
71974;BME280;59840;52.122;5.404;2022-09-12T01:55:23;101798.41;;;11.24;89.95
71974;BME280;59840;52.122;5.404;2022-09-12T01:57:59;101798.06;;;11.20;89.50
71974;BME280;59840;52.122;5.404;2022-09-12T02:00:32;101790.56;;;11.17;89.24
71974;BME280;59840;52.122;5.404;2022-09-12T02:03:18;101789.75;;;11.17;89.84
71974;BME280;59840;52.122;5.404;2022-09-12T02:08:21;101786.75;;;11.13;89.69
71974;BME280;59840;52.122;5.404;2022-09-12T02:11:06;101772.75;;;11.13;89.63
71974;BME280;59840;52.122;5.404;2022-09-12T02:13:43;101771.94;;;11.12;89.61
71974;BME280;59840;52.122;5.404;2022-09-12T02:18:51;101775.03;;;11.09;90.01
71974;BME280;59840;52.122;5.404;2022-09-12T02:21:20;101772.88;;;11.06;90.04
71974;BME280;59840;52.122;5.404;2022-09-12T02:23:54;101776.31;;;11.06;89.28
71974;BME280;59840;52.122;5.404;2022-09-12T02:26:37;101774.47;;;11.07;89.97
71974;BME280;59840;52.122;5.404;2022-09-12T02:29:06;101772.88;;;11.06;89.69
71974;BME280;59840;52.122;5.404;2022-09-12T02:31:40;101769.66;;;11.04;89.80
71974;BME280;59840;52.122;5.404;2022-09-12T02:34:19;101771.91;;;11.00;90.10
71974;BME280;59840;52.122;5.404;2022-09-12T02:39:15;101772.59;;;10.96;90.04
71974;BME280;59840;52.122;5.404;2022-09-12T02:41:49;101767.31;;;10.96;90.28
71974;BME280;59840;52.122;5.404;2022-09-12T02:44:16;101761.00;;;10.97;89.83
71974;BME280;59840;52.122;5.404;2022-09-12T02:46:47;101759.38;;;10.96;90.08
71974;BME280;59840;52.122;5.404;2022-09-12T02:49:16;101753.16;;;10.90;89.92
71974;BME280;59840;52.122;5.404;2022-09-12T02:51:44;101755.22;;;10.88;90.11
71974;BME280;59840;52.122;5.404;2022-09-12T02:54:14;101751.31;;;10.91;90.80
71974;BME280;59840;52.122;5.404;2022-09-12T02:56:42;101748.09;;;10.89;90.54
71974;BME280;59840;52.122;5.404;2022-09-12T02:59:13;101755.00;;;10.90;90.04
71974;BME280;59840;52.122;5.404;2022-09-12T03:02:05;101756.84;;;10.89;90.61
71974;BME280;59840;52.122;5.404;2022-09-12T03:04:45;101750.38;;;10.85;90.01
71974;BME280;59840;52.122;5.404;2022-09-12T03:10:23;101739.09;;;10.78;89.84
71974;BME280;59840;52.122;5.404;2022-09-12T03:18:31;101744.81;;;10.75;90.17
71974;BME280;59840;52.122;5.404;2022-09-12T03:21:02;101737.16;;;10.73;90.24
71974;BME280;59840;52.122;5.404;2022-09-12T03:24:01;101733.13;;;10.71;90.11
71974;BME280;59840;52.122;5.404;2022-09-12T03:27:00;101732.31;;;10.70;90.12
71974;BME280;59840;52.122;5.404;2022-09-12T03:29:29;101750.66;;;10.65;90.21
71974;BME280;59840;52.122;5.404;2022-09-12T03:31:57;101743.75;;;10.64;90.26
71974;BME280;59840;52.122;5.404;2022-09-12T03:34:25;101736.06;;;10.63;90.16
71974;BME280;59840;52.122;5.404;2022-09-12T03:36:53;101738.34;;;10.59;90.17
71974;BME280;59840;52.122;5.404;2022-09-12T03:39:23;101732.25;;;10.59;90.17
71974;BME280;59840;52.122;5.404;2022-09-12T03:41:50;101733.28;;;10.58;89.79
71974;BME280;59840;52.122;5.404;2022-09-12T03:44:17;101736.72;;;10.58;89.93
71974;BME280;59840;52.122;5.404;2022-09-12T03:46:44;101737.75;;;10.57;90.12
71974;BME280;59840;52.122;5.404;2022-09-12T03:49:11;101729.47;;;10.54;89.89
71974;BME280;59840;52.122;5.404;2022-09-12T03:51:38;101726.91;;;10.47;90.19
71974;BME280;59840;52.122;5.404;2022-09-12T03:54:05;101721.84;;;10.46;90.77
71974;BME280;59840;52.122;5.404;2022-09-12T03:56:32;101723.09;;;10.43;90.37
71974;BME280;59840;52.122;5.404;2022-09-12T03:58:58;101713.56;;;10.42;91.10
71974;BME280;59840;52.122;5.404;2022-09-12T04:01:25;101720.22;;;10.45;90.48
71974;BME280;59840;52.122;5.404;2022-09-12T04:03:51;101714.16;;;10.44;91.08
71974;BME280;59840;52.122;5.404;2022-09-12T04:06:20;101712.91;;;10.47;90.34
71974;BME280;59840;52.122;5.404;2022-09-12T04:08:49;101704.41;;;10.45;90.66
71974;BME280;59840;52.122;5.404;2022-09-12T04:11:16;101702.34;;;10.47;90.94
71974;BME280;59840;52.122;5.404;2022-09-12T04:13:44;101710.84;;;10.49;90.58
71974;BME280;59840;52.122;5.404;2022-09-12T04:16:12;101714.06;;;10.51;91.13
71974;BME280;59840;52.122;5.404;2022-09-12T04:18:40;101718.31;;;10.52;90.84
71974;BME280;59840;52.122;5.404;2022-09-12T04:21:09;101719.94;;;10.53;90.67
71974;BME280;59840;52.122;5.404;2022-09-12T04:23:36;101714.44;;;10.54;90.82
71974;BME280;59840;52.122;5.404;2022-09-12T04:26:04;101717.44;;;10.58;91.50
71974;BME280;59840;52.122;5.404;2022-09-12T04:28:32;101714.00;;;10.57;91.40
71974;BME280;59840;52.122;5.404;2022-09-12T04:31:21;101723.53;;;10.58;91.69
71974;BME280;59840;52.122;5.404;2022-09-12T04:33:56;101700.81;;;10.57;91.50
71974;BME280;59840;52.122;5.404;2022-09-12T04:36:24;101717.22;;;10.59;91.64
71974;BME280;59840;52.122;5.404;2022-09-12T04:38:52;101716.19;;;10.60;91.38
71974;BME280;59840;52.122;5.404;2022-09-12T04:41:21;101709.66;;;10.63;91.79
71974;BME280;59840;52.122;5.404;2022-09-12T04:43:57;101709.22;;;10.66;91.20
71974;BME280;59840;52.122;5.404;2022-09-12T04:46:24;101711.28;;;10.64;91.25
71974;BME280;59840;52.122;5.404;2022-09-12T04:48:51;101710.25;;;10.65;91.57
71974;BME280;59840;52.122;5.404;2022-09-12T04:51:24;101716.34;;;10.65;91.34
71974;BME280;59840;52.122;5.404;2022-09-12T04:53:56;101709.22;;;10.66;92.05
71974;BME280;59840;52.122;5.404;2022-09-12T04:56:25;101711.06;;;10.65;91.48
71974;BME280;59840;52.122;5.404;2022-09-12T04:58:52;101711.06;;;10.65;91.75
71974;BME280;59840;52.122;5.404;2022-09-12T05:01:20;101706.94;;;10.69;91.51
71974;BME280;59840;52.122;5.404;2022-09-12T05:03:48;101705.47;;;10.73;91.66
71974;BME280;59840;52.122;5.404;2022-09-12T05:06:23;101708.66;;;10.75;91.76
71974;BME280;59840;52.122;5.404;2022-09-12T05:08:51;101699.28;;;10.80;92.52
71974;BME280;59840;52.122;5.404;2022-09-12T05:11:21;101706.97;;;10.81;92.58
71974;BME280;59840;52.122;5.404;2022-09-12T05:13:55;101704.69;;;10.85;92.57
71974;BME280;59840;52.122;5.404;2022-09-12T05:16:23;101705.84;;;10.89;92.94
71974;BME280;59840;52.122;5.404;2022-09-12T05:18:50;101699.09;;;10.93;93.05
71974;BME280;59840;52.122;5.404;2022-09-12T05:21:19;101710.03;;;10.96;92.67
71974;BME280;59840;52.122;5.404;2022-09-12T05:23:46;101707.75;;;11.00;92.67
71974;BME280;59840;52.122;5.404;2022-09-12T05:26:15;101704.66;;;11.03;92.71
71974;BME280;59840;52.122;5.404;2022-09-12T05:28:42;101708.91;;;11.04;92.61
71974;BME280;59840;52.122;5.404;2022-09-12T05:31:20;101705.22;;;11.05;92.58
71974;BME280;59840;52.122;5.404;2022-09-12T05:33:48;101704.19;;;11.06;92.68
71974;BME280;59840;52.122;5.404;2022-09-12T05:36:18;101700.53;;;11.07;92.53
71974;BME280;59840;52.122;5.404;2022-09-12T05:38:46;101700.63;;;11.12;92.52
71974;BME280;59840;52.122;5.404;2022-09-12T05:41:18;101695.47;;;11.17;92.79
71974;BME280;59840;52.122;5.404;2022-09-12T05:43:52;101692.97;;;11.22;93.02
71974;BME280;59840;52.122;5.404;2022-09-12T05:46:21;101706.75;;;11.24;92.55
71974;BME280;59840;52.122;5.404;2022-09-12T05:48:48;101703.09;;;11.25;92.74
71974;BME280;59840;52.122;5.404;2022-09-12T05:51:26;101698.38;;;11.27;93.05
71974;BME280;59840;52.122;5.404;2022-09-12T05:53:55;101698.94;;;11.29;92.98
71974;BME280;59840;52.122;5.404;2022-09-12T05:56:24;101697.69;;;11.32;93.18
71974;BME280;59840;52.122;5.404;2022-09-12T05:58:53;101701.16;;;11.32;92.83
71974;BME280;59840;52.122;5.404;2022-09-12T06:01:21;101698.50;;;11.32;92.89
71974;BME280;59840;52.122;5.404;2022-09-12T06:03:50;101697.34;;;11.28;92.48
71974;BME280;59840;52.122;5.404;2022-09-12T06:06:19;101696.19;;;11.24;92.04
71974;BME280;59840;52.122;5.404;2022-09-12T06:08:48;101696.19;;;11.24;92.17
71974;BME280;59840;52.122;5.404;2022-09-12T06:11:21;101697.22;;;11.23;92.09
71974;BME280;59840;52.122;5.404;2022-09-12T06:13:48;101692.50;;;11.25;92.49
71974;BME280;59840;52.122;5.404;2022-09-12T06:16:21;101697.00;;;11.25;92.11
71974;BME280;59840;52.122;5.404;2022-09-12T06:18:50;101693.53;;;11.24;92.61
71974;BME280;59840;52.122;5.404;2022-09-12T06:21:17;101700.22;;;11.27;92.69
71974;BME280;59840;52.122;5.404;2022-09-12T06:23:43;101706.88;;;11.29;92.50
71974;BME280;59840;52.122;5.404;2022-09-12T06:26:14;101702.53;;;11.35;92.41
71974;BME280;59840;52.122;5.404;2022-09-12T06:28:43;101703.91;;;11.37;92.43
71974;BME280;59840;52.122;5.404;2022-09-12T06:31:15;101702.19;;;11.43;92.83
71974;BME280;59840;52.122;5.404;2022-09-12T06:33:44;101710.22;;;11.48;92.82
71974;BME280;59840;52.122;5.404;2022-09-12T06:36:13;101713.00;;;11.53;92.86
71974;BME280;59840;52.122;5.404;2022-09-12T06:38:41;101702.31;;;11.60;93.16
71974;BME280;59840;52.122;5.404;2022-09-12T06:41:10;101700.59;;;11.65;93.20
71974;BME280;59840;52.122;5.404;2022-09-12T06:43:38;101700.47;;;11.72;93.10
71974;BME280;59840;52.122;5.404;2022-09-12T06:46:06;101691.66;;;11.78;93.47
71974;BME280;59840;52.122;5.404;2022-09-12T06:48:33;101693.34;;;11.84;93.40
71974;BME280;59840;52.122;5.404;2022-09-12T06:51:12;101690.03;;;11.89;93.51
71974;BME280;59840;52.122;5.404;2022-09-12T06:53:40;101693.81;;;11.93;93.38
71974;BME280;59840;52.122;5.404;2022-09-12T06:56:18;101694.50;;;12.00;93.38
71974;BME280;59840;52.122;5.404;2022-09-12T06:58:46;101683.00;;;12.06;93.63
71974;BME280;59840;52.122;5.404;2022-09-12T07:01:18;101683.19;;;12.16;94.11
71974;BME280;59840;52.122;5.404;2022-09-12T07:03:48;101671.53;;;12.29;94.33
71974;BME280;59840;52.122;5.404;2022-09-12T07:06:16;101678.19;;;12.43;95.13
71974;BME280;59840;52.122;5.404;2022-09-12T07:08:43;101683.50;;;12.60;95.51
71974;BME280;59840;52.122;5.404;2022-09-12T07:11:22;101682.44;;;12.72;95.65
71974;BME280;59840;52.122;5.404;2022-09-12T07:13:51;101685.88;;;12.90;95.84
71974;BME280;59840;52.122;5.404;2022-09-12T07:16:19;101691.13;;;13.01;95.65
71974;BME280;59840;52.122;5.404;2022-09-12T07:18:50;101683.47;;;13.17;96.07
71974;BME280;59840;52.122;5.404;2022-09-12T07:21:17;101690.06;;;13.31;96.04
71974;BME280;59840;52.122;5.404;2022-09-12T07:23:43;101689.50;;;13.46;96.12
71974;BME280;59840;52.122;5.404;2022-09-12T07:26:12;101687.78;;;13.56;96.00
71974;BME280;59840;52.122;5.404;2022-09-12T07:28:39;101684.22;;;13.67;96.12
71974;BME280;59840;52.122;5.404;2022-09-12T07:31:13;101688.41;;;13.80;96.13
71974;BME280;59840;52.122;5.404;2022-09-12T07:33:41;101679.56;;;13.96;95.84
71974;BME280;59840;52.122;5.404;2022-09-12T07:36:11;101680.09;;;14.15;95.38
71974;BME280;59840;52.122;5.404;2022-09-12T07:38:39;101683.72;;;14.31;95.28
71974;BME280;59840;52.122;5.404;2022-09-12T07:41:19;101683.13;;;14.46;95.66
71974;BME280;59840;52.122;5.404;2022-09-12T07:43:46;101679.25;;;14.58;94.88
71974;BME280;59840;52.122;5.404;2022-09-12T07:46:13;101681.28;;;14.73;94.04
71974;BME280;59840;52.122;5.404;2022-09-12T07:48:40;101683.53;;;14.86;93.68
71974;BME280;59840;52.122;5.404;2022-09-12T07:51:08;101672.78;;;15.03;93.57
71974;BME280;59840;52.122;5.404;2022-09-12T07:53:37;101681.44;;;15.20;92.94
71974;BME280;59840;52.122;5.404;2022-09-12T07:56:06;101683.69;;;15.38;92.17
71974;BME280;59840;52.122;5.404;2022-09-12T07:58:34;101683.78;;;15.54;91.83
71974;BME280;59840;52.122;5.404;2022-09-12T08:01:06;101676.69;;;15.64;90.80
71974;BME280;59840;52.122;5.404;2022-09-12T08:03:37;101686.38;;;15.81;90.07
71974;BME280;59840;52.122;5.404;2022-09-12T08:08:33;101683.88;;;16.16;89.11
71974;BME280;59840;52.122;5.404;2022-09-12T08:11:02;101683.63;;;16.33;88.84
71974;BME280;59840;52.122;5.404;2022-09-12T08:13:32;101682.91;;;16.53;87.31
71974;BME280;59840;52.122;5.404;2022-09-12T08:16:01;101680.28;;;16.68;86.15
71974;BME280;59840;52.122;5.404;2022-09-12T08:18:29;101687.53;;;16.88;86.14
71974;BME280;59840;52.122;5.404;2022-09-12T08:21:04;101687.25;;;16.99;86.11
71974;BME280;59840;52.122;5.404;2022-09-12T08:23:31;101693.41;;;17.10;84.90
71974;BME280;59840;52.122;5.404;2022-09-12T08:25:59;101695.00;;;17.31;83.58
71974;BME280;59840;52.122;5.404;2022-09-12T08:28:33;101684.84;;;17.43;82.80
71974;BME280;59840;52.122;5.404;2022-09-12T08:31:01;101686.44;;;17.55;82.78
71974;BME280;59840;52.122;5.404;2022-09-12T08:33:29;101691.75;;;17.70;81.90
71974;BME280;59840;52.122;5.404;2022-09-12T08:36:03;101692.25;;;17.87;80.92
71974;BME280;59840;52.122;5.404;2022-09-12T08:38:30;101680.22;;;17.90;80.08
71974;BME280;59840;52.122;5.404;2022-09-12T08:52:06;101686.56;;;18.63;79.47
71974;BME280;59840;52.122;5.404;2022-09-12T08:54:36;101684.56;;;18.79;78.35
71974;BME280;59840;52.122;5.404;2022-09-12T08:57:04;101685.31;;;18.90;76.95
71974;BME280;59840;52.122;5.404;2022-09-12T08:59:36;101674.53;;;19.00;76.55
71974;BME280;59840;52.122;5.404;2022-09-12T09:16:31;101658.94;;;19.65;74.46
71974;BME280;59840;52.122;5.404;2022-09-12T09:19:05;101664.25;;;19.70;73.76
71974;BME280;59840;52.122;5.404;2022-09-12T09:21:42;101656.47;;;19.92;74.16
71974;BME280;59840;52.122;5.404;2022-09-12T09:24:15;101651.44;;;20.10;72.65
71974;BME280;59840;52.122;5.404;2022-09-12T09:30:12;101646.38;;;20.27;71.87
71974;BME280;59840;52.122;5.404;2022-09-12T09:32:40;101643.06;;;20.35;72.68
71974;BME280;59840;52.122;5.404;2022-09-12T09:35:18;101652.06;;;20.44;71.35
71974;BME280;59840;52.122;5.404;2022-09-12T09:40:36;101656.31;;;20.45;70.36
71974;BME280;59840;52.122;5.404;2022-09-12T09:43:16;101653.63;;;20.45;70.09
71974;BME280;59840;52.122;5.404;2022-09-12T09:45:45;101654.81;;;20.39;68.70
71974;BME280;59840;52.122;5.404;2022-09-12T09:48:19;101649.69;;;20.43;70.29
71974;BME280;59840;52.122;5.404;2022-09-12T09:50:47;101649.06;;;20.46;70.19
71974;BME280;59840;52.122;5.404;2022-09-12T09:53:53;101650.09;;;20.50;70.39
71974;BME280;59840;52.122;5.404;2022-09-12T09:59:18;101641.47;;;20.71;70.12
71974;BME280;59840;52.122;5.404;2022-09-12T10:01:59;101636.72;;;20.82;70.13
71974;BME280;59840;52.122;5.404;2022-09-12T10:04:31;101632.13;;;20.83;68.68
71974;BME280;59840;52.122;5.404;2022-09-12T10:07:10;101625.69;;;20.84;68.94
71974;BME280;59840;52.122;5.404;2022-09-12T10:10:03;101633.19;;;21.00;69.13
71974;BME280;59840;52.122;5.404;2022-09-12T10:12:31;101633.06;;;20.92;66.83
71974;BME280;59840;52.122;5.404;2022-09-12T10:14:59;101626.03;;;20.96;67.72
71974;BME280;59840;52.122;5.404;2022-09-12T10:17:42;101621.66;;;21.00;67.03
71974;BME280;59840;52.122;5.404;2022-09-12T10:22:54;101616.63;;;21.12;66.90
71974;BME280;59840;52.122;5.404;2022-09-12T10:25:23;101618.97;;;21.32;66.68
71974;BME280;59840;52.122;5.404;2022-09-12T10:27:53;101611.09;;;21.36;67.22
71974;BME280;59840;52.122;5.404;2022-09-12T10:30:22;101602.97;;;21.41;64.71
71974;BME280;59840;52.122;5.404;2022-09-12T10:32:57;101606.72;;;21.54;64.83
71974;BME280;59840;52.122;5.404;2022-09-12T10:35:41;101601.66;;;21.66;65.24
71974;BME280;59840;52.122;5.404;2022-09-12T10:38:26;101590.59;;;21.81;65.66
71974;BME280;59840;52.122;5.404;2022-09-12T10:41:05;101587.97;;;21.90;64.84
71974;BME280;59840;52.122;5.404;2022-09-12T10:43:37;101588.88;;;21.85;64.58
71974;BME280;59840;52.122;5.404;2022-09-12T10:48:45;101585.69;;;22.11;64.37
71974;BME280;59840;52.122;5.404;2022-09-12T10:51:32;101578.94;;;22.22;64.36
71974;BME280;59840;52.122;5.404;2022-09-12T10:54:02;101579.22;;;22.34;63.12
71974;BME280;59840;52.122;5.404;2022-09-12T11:02:28;101569.06;;;22.09;63.10
71974;BME280;59840;52.122;5.404;2022-09-12T11:05:02;101558.13;;;22.27;62.16
71974;BME280;59840;52.122;5.404;2022-09-12T11:10:51;101565.97;;;22.37;61.50
71974;BME280;59840;52.122;5.404;2022-09-12T11:19:32;101573.97;;;22.51;57.78
71974;BME280;59840;52.122;5.404;2022-09-12T11:22:32;101564.00;;;22.29;58.70
71974;BME280;59840;52.122;5.404;2022-09-12T11:30:17;101559.78;;;22.82;58.19
71974;BME280;59840;52.122;5.404;2022-09-12T11:33:06;101557.03;;;23.04;57.74
71974;BME280;59840;52.122;5.404;2022-09-12T11:35:48;101565.31;;;23.16;55.83
71974;BME280;59840;52.122;5.404;2022-09-12T11:40:57;101550.66;;;23.00;57.62
71974;BME280;59840;52.122;5.404;2022-09-12T11:43:42;101555.16;;;23.13;56.46
71974;BME280;59840;52.122;5.404;2022-09-12T11:46:29;101555.16;;;23.13;55.88
71974;BME280;59840;52.122;5.404;2022-09-12T11:49:12;101550.25;;;23.24;55.06
71974;BME280;59840;52.122;5.404;2022-09-12T11:54:52;101553.34;;;23.00;56.22
71974;BME280;59840;52.122;5.404;2022-09-12T12:00:21;101544.44;;;23.30;58.14
71974;BME280;59840;52.122;5.404;2022-09-12T12:03:17;101543.09;;;23.59;56.62
71974;BME280;59840;52.122;5.404;2022-09-12T12:05:59;101541.22;;;23.68;55.94
71974;BME280;59840;52.122;5.404;2022-09-12T12:08:28;101534.41;;;23.70;53.89
71974;BME280;59840;52.122;5.404;2022-09-12T12:10:59;101530.91;;;23.70;53.71
71974;BME280;59840;52.122;5.404;2022-09-12T12:13:37;101531.69;;;23.53;54.44
71974;BME280;59840;52.122;5.404;2022-09-12T12:16:10;101526.31;;;23.62;54.47
71974;BME280;59840;52.122;5.404;2022-09-12T12:18:38;101524.09;;;23.64;54.79
71974;BME280;59840;52.122;5.404;2022-09-12T12:29:10;101524.09;;;23.98;55.89
71974;BME280;59840;52.122;5.404;2022-09-12T12:36:58;101526.00;;;24.15;52.52
71974;BME280;59840;52.122;5.404;2022-09-12T12:41:58;101516.66;;;24.21;54.28
71974;BME280;59840;52.122;5.404;2022-09-12T12:44:47;101515.84;;;24.38;53.39
71974;BME280;59840;52.122;5.404;2022-09-12T12:47:41;101510.78;;;24.28;51.61
71974;BME280;59840;52.122;5.404;2022-09-12T12:55:18;101493.50;;;24.03;50.76
71974;BME280;59840;52.122;5.404;2022-09-12T12:57:59;101488.25;;;24.15;52.95
71974;BME280;59840;52.122;5.404;2022-09-12T13:00:33;101494.25;;;24.38;54.65
71974;BME280;59840;52.122;5.404;2022-09-12T13:05:46;101479.50;;;24.35;52.30
71974;BME280;59840;52.122;5.404;2022-09-12T13:10:51;101486.94;;;24.47;51.24
71974;BME280;59840;52.122;5.404;2022-09-12T13:14:32;101479.97;;;24.37;50.86
71974;BME280;59840;52.122;5.404;2022-09-12T13:16:10;101477.13;;;24.34;50.32
71974;BME280;59840;52.122;5.404;2022-09-12T13:18:43;101464.56;;;24.47;49.92
71974;BME280;59840;52.122;5.404;2022-09-12T13:21:16;101468.44;;;24.66;50.40
71974;BME280;59840;52.122;5.404;2022-09-12T13:23:43;101465.03;;;24.87;50.31
71974;BME280;59840;52.122;5.404;2022-09-12T13:26:13;101457.03;;;24.99;50.31
71974;BME280;59840;52.122;5.404;2022-09-12T13:28:46;101446.25;;;24.99;48.43
71974;BME280;59840;52.122;5.404;2022-09-12T13:31:23;101447.72;;;24.88;48.93
71974;BME280;59840;52.122;5.404;2022-09-12T13:34:00;101441.44;;;25.04;49.22
71974;BME280;59840;52.122;5.404;2022-09-12T13:39:28;101453.28;;;24.53;48.83
71974;BME280;59840;52.122;5.404;2022-09-12T13:42:26;101442.53;;;24.36;49.84
71974;BME280;59840;52.122;5.404;2022-09-12T13:45:21;101436.19;;;24.41;50.34
71974;BME280;59840;52.122;5.404;2022-09-12T13:48:15;101435.38;;;24.40;50.70
71974;BME280;59840;52.122;5.404;2022-09-12T13:50:50;101446.91;;;24.58;50.59
71974;BME280;59840;52.122;5.404;2022-09-12T13:53:21;101432.84;;;24.44;50.29
71974;BME280;59840;52.122;5.404;2022-09-12T13:55:51;101433.13;;;24.51;51.07
71974;BME280;59840;52.122;5.404;2022-09-12T13:58:31;101431.31;;;24.63;51.75
71974;BME280;59840;52.122;5.404;2022-09-12T14:01:17;101432.81;;;24.82;50.72
71974;BME280;59840;52.122;5.404;2022-09-12T14:03:53;101420.16;;;25.03;50.00
71974;BME280;59840;52.122;5.404;2022-09-12T14:09:13;101423.44;;;25.17;47.52
71974;BME280;59840;52.122;5.404;2022-09-12T14:11:40;101420.13;;;25.12;46.89
71974;BME280;59840;52.122;5.404;2022-09-12T14:14:20;101417.16;;;25.04;47.71
71974;BME280;59840;52.122;5.404;2022-09-12T14:16:52;101408.75;;;24.97;48.06
71974;BME280;59840;52.122;5.404;2022-09-12T14:19:22;101413.47;;;25.09;47.34
71974;BME280;59840;52.122;5.404;2022-09-12T14:21:52;101411.13;;;25.28;48.55
71974;BME280;59840;52.122;5.404;2022-09-12T14:24:19;101408.75;;;25.27;48.32
71974;BME280;59840;52.122;5.404;2022-09-12T14:26:51;101407.22;;;25.38;47.63
71974;BME280;59840;52.122;5.404;2022-09-12T14:29:19;101396.03;;;25.27;47.15
71974;BME280;59840;52.122;5.404;2022-09-12T14:31:59;101384.94;;;24.99;47.62
71974;BME280;59840;52.122;5.404;2022-09-12T14:34:26;101381.56;;;25.02;48.03
71974;BME280;59840;52.122;5.404;2022-09-12T14:36:54;101380.69;;;25.19;47.59
71974;BME280;59840;52.122;5.404;2022-09-12T14:39:29;101373.34;;;24.99;48.51
71974;BME280;59840;52.122;5.404;2022-09-12T14:42:15;101376.50;;;25.01;47.56
71974;BME280;59840;52.122;5.404;2022-09-12T14:44:54;101365.84;;;25.04;47.97
71974;BME280;59840;52.122;5.404;2022-09-12T14:47:25;101362.53;;;24.99;47.19
71974;BME280;59840;52.122;5.404;2022-09-12T14:49:53;101369.03;;;25.27;46.51
71974;BME280;59840;52.122;5.404;2022-09-12T15:02:40;101356.78;;;25.96;46.85
71974;BME280;59840;52.122;5.404;2022-09-12T15:07:40;101356.44;;;26.10;47.94
71974;BME280;59840;52.122;5.404;2022-09-12T15:10:27;101363.84;;;26.33;46.19
71974;BME280;59840;52.122;5.404;2022-09-12T15:15:36;101362.31;;;26.85;43.07
71974;BME280;59840;52.122;5.404;2022-09-12T15:18:02;101372.59;;;26.43;43.36
71974;BME280;59840;52.122;5.404;2022-09-12T15:20:36;101363.44;;;26.23;44.85
71974;BME280;59840;52.122;5.404;2022-09-12T15:23:06;101353.31;;;26.20;45.62
71974;BME280;59840;52.122;5.404;2022-09-12T15:25:36;101356.56;;;26.98;43.82
71974;BME280;59840;52.122;5.404;2022-09-12T15:28:10;101353.38;;;27.36;43.14
71974;BME280;59840;52.122;5.404;2022-09-12T15:30:40;101341.38;;;27.10;43.93
71974;BME280;59840;52.122;5.404;2022-09-12T15:33:08;101340.56;;;27.21;41.57
71974;BME280;59840;52.122;5.404;2022-09-12T15:35:34;101347.88;;;26.81;43.08
71974;BME280;59840;52.122;5.404;2022-09-12T15:38:01;101349.56;;;26.97;43.76
71974;BME280;59840;52.122;5.404;2022-09-12T15:40:27;101343.81;;;26.99;43.64
71974;BME280;59840;52.122;5.404;2022-09-12T15:42:53;101340.69;;;27.13;43.58
71974;BME280;59840;52.122;5.404;2022-09-12T15:45:23;101328.91;;;26.93;44.35
71974;BME280;59840;52.122;5.404;2022-09-12T15:47:51;101338.09;;;27.16;43.71
71974;BME280;59840;52.122;5.404;2022-09-12T15:50:17;101337.47;;;27.35;43.59
71974;BME280;59840;52.122;5.404;2022-09-12T15:52:44;101333.47;;;27.88;41.38